sensor_id;sensor_type;location;lat;lon;timestamp;temperature;humidity
10968;DHT22;5536;49.602;10.980;2022-12-07T00:00:51;3.60;99.90
10968;DHT22;5536;49.602;10.980;2022-12-07T00:03:18;3.60;99.90
10968;DHT22;5536;49.602;10.980;2022-12-07T00:05:46;3.60;99.90
10968;DHT22;5536;49.602;10.980;2022-12-07T00:08:13;3.60;99.90
10968;DHT22;5536;49.602;10.980;2022-12-07T00:10:40;3.50;99.90
10968;DHT22;5536;49.602;10.980;2022-12-07T00:13:07;3.50;99.90
10968;DHT22;5536;49.602;10.980;2022-12-07T00:15:34;3.50;99.90
10968;DHT22;5536;49.602;10.980;2022-12-07T00:18:01;3.50;99.90
10968;DHT22;5536;49.602;10.980;2022-12-07T00:20:28;3.50;99.90
10968;DHT22;5536;49.602;10.980;2022-12-07T00:22:57;3.60;99.90
10968;DHT22;5536;49.602;10.980;2022-12-07T00:25:24;3.50;99.90
10968;DHT22;5536;49.602;10.980;2022-12-07T00:27:52;3.50;99.90
10968;DHT22;5536;49.602;10.980;2022-12-07T00:30:21;3.50;99.90
10968;DHT22;5536;49.602;10.980;2022-12-07T00:32:48;3.50;99.90
10968;DHT22;5536;49.602;10.980;2022-12-07T00:35:15;3.50;99.90
10968;DHT22;5536;49.602;10.980;2022-12-07T00:37:42;3.50;99.90
10968;DHT22;5536;49.602;10.980;2022-12-07T00:40:11;3.50;99.90
10968;DHT22;5536;49.602;10.980;2022-12-07T00:42:38;3.50;99.90
10968;DHT22;5536;49.602;10.980;2022-12-07T00:45:06;3.50;99.90
10968;DHT22;5536;49.602;10.980;2022-12-07T00:47:33;3.50;99.90
10968;DHT22;5536;49.602;10.980;2022-12-07T00:50:00;3.50;99.90
10968;DHT22;5536;49.602;10.980;2022-12-07T00:52:27;3.50;99.90
10968;DHT22;5536;49.602;10.980;2022-12-07T00:54:54;3.50;99.90
10968;DHT22;5536;49.602;10.980;2022-12-07T00:57:22;3.50;99.90
10968;DHT22;5536;49.602;10.980;2022-12-07T00:59:49;3.50;99.90
10968;DHT22;5536;49.602;10.980;2022-12-07T01:02:16;3.50;99.90
10968;DHT22;5536;49.602;10.980;2022-12-07T01:04:43;3.40;99.90
10968;DHT22;5536;49.602;10.980;2022-12-07T01:07:09;3.40;99.90
10968;DHT22;5536;49.602;10.980;2022-12-07T01:09:36;3.40;99.90
10968;DHT22;5536;49.602;10.980;2022-12-07T01:12:04;3.40;99.90
10968;DHT22;5536;49.602;10.980;2022-12-07T01:14:33;3.50;99.90
10968;DHT22;5536;49.602;10.980;2022-12-07T01:17:00;3.40;99.90
10968;DHT22;5536;49.602;10.980;2022-12-07T01:19:27;3.40;99.90
10968;DHT22;5536;49.602;10.980;2022-12-07T01:21:54;3.40;99.90
10968;DHT22;5536;49.602;10.980;2022-12-07T01:24:20;3.40;99.90
10968;DHT22;5536;49.602;10.980;2022-12-07T01:26:49;3.40;99.90
10968;DHT22;5536;49.602;10.980;2022-12-07T01:29:16;3.40;99.90
10968;DHT22;5536;49.602;10.980;2022-12-07T01:31:44;3.40;99.90
10968;DHT22;5536;49.602;10.980;2022-12-07T01:34:11;3.40;99.90
10968;DHT22;5536;49.602;10.980;2022-12-07T01:36:38;3.50;99.90
10968;DHT22;5536;49.602;10.980;2022-12-07T01:39:06;3.40;99.90
10968;DHT22;5536;49.602;10.980;2022-12-07T01:41:37;3.30;99.90
10968;DHT22;5536;49.602;10.980;2022-12-07T01:44:15;3.40;99.90
10968;DHT22;5536;49.602;10.980;2022-12-07T01:46:45;3.30;99.90
10968;DHT22;5536;49.602;10.980;2022-12-07T01:49:16;3.40;99.90
10968;DHT22;5536;49.602;10.980;2022-12-07T01:51:46;3.40;99.90
10968;DHT22;5536;49.602;10.980;2022-12-07T01:54:14;3.40;99.90
10968;DHT22;5536;49.602;10.980;2022-12-07T01:56:47;3.30;99.90
10968;DHT22;5536;49.602;10.980;2022-12-07T01:59:16;3.40;99.90
10968;DHT22;5536;49.602;10.980;2022-12-07T02:01:46;3.40;99.90
10968;DHT22;5536;49.602;10.980;2022-12-07T02:04:13;3.40;99.90
10968;DHT22;5536;49.602;10.980;2022-12-07T02:06:41;3.40;99.90
10968;DHT22;5536;49.602;10.980;2022-12-07T02:09:09;3.40;99.90
10968;DHT22;5536;49.602;10.980;2022-12-07T02:11:36;3.40;99.90
10968;DHT22;5536;49.602;10.980;2022-12-07T02:14:03;3.40;99.90
10968;DHT22;5536;49.602;10.980;2022-12-07T02:16:36;3.40;99.90
10968;DHT22;5536;49.602;10.980;2022-12-07T02:19:22;3.40;99.90
10968;DHT22;5536;49.602;10.980;2022-12-07T02:21:59;3.30;99.90
10968;DHT22;5536;49.602;10.980;2022-12-07T02:24:48;3.30;99.90
10968;DHT22;5536;49.602;10.980;2022-12-07T02:27:34;3.30;99.90
10968;DHT22;5536;49.602;10.980;2022-12-07T02:30:07;3.30;99.90
10968;DHT22;5536;49.602;10.980;2022-12-07T02:32:43;3.30;99.90
10968;DHT22;5536;49.602;10.980;2022-12-07T02:35:15;3.20;99.90
10968;DHT22;5536;49.602;10.980;2022-12-07T02:37:51;3.20;99.90
10968;DHT22;5536;49.602;10.980;2022-12-07T02:40:26;3.10;99.90
10968;DHT22;5536;49.602;10.980;2022-12-07T02:43:00;3.00;99.90
10968;DHT22;5536;49.602;10.980;2022-12-07T02:45:30;3.10;99.90
10968;DHT22;5536;49.602;10.980;2022-12-07T02:47:59;3.10;99.90
10968;DHT22;5536;49.602;10.980;2022-12-07T02:50:27;3.20;99.90
10968;DHT22;5536;49.602;10.980;2022-12-07T02:52:54;3.10;99.90
10968;DHT22;5536;49.602;10.980;2022-12-07T02:55:25;3.10;99.90
10968;DHT22;5536;49.602;10.980;2022-12-07T02:58:12;3.00;99.90
10968;DHT22;5536;49.602;10.980;2022-12-07T03:00:51;3.00;99.90
10968;DHT22;5536;49.602;10.980;2022-12-07T03:03:19;3.00;99.90
10968;DHT22;5536;49.602;10.980;2022-12-07T03:05:59;3.00;99.90
10968;DHT22;5536;49.602;10.980;2022-12-07T03:08:38;3.00;99.90
10968;DHT22;5536;49.602;10.980;2022-12-07T03:11:10;3.10;99.90
10968;DHT22;5536;49.602;10.980;2022-12-07T03:13:42;3.10;99.90
10968;DHT22;5536;49.602;10.980;2022-12-07T03:16:15;3.00;99.90
10968;DHT22;5536;49.602;10.980;2022-12-07T03:18:46;3.00;99.90
10968;DHT22;5536;49.602;10.980;2022-12-07T03:21:18;3.00;99.90
10968;DHT22;5536;49.602;10.980;2022-12-07T03:23:49;3.00;99.90
10968;DHT22;5536;49.602;10.980;2022-12-07T03:26:17;3.00;99.90
10968;DHT22;5536;49.602;10.980;2022-12-07T03:28:49;3.00;99.90
10968;DHT22;5536;49.602;10.980;2022-12-07T03:31:21;3.00;99.90
10968;DHT22;5536;49.602;10.980;2022-12-07T03:33:53;2.90;99.90
10968;DHT22;5536;49.602;10.980;2022-12-07T03:36:25;2.80;99.90
10968;DHT22;5536;49.602;10.980;2022-12-07T03:38:57;2.70;99.90
10968;DHT22;5536;49.602;10.980;2022-12-07T03:41:28;2.60;99.90
10968;DHT22;5536;49.602;10.980;2022-12-07T03:43:56;2.60;99.90
10968;DHT22;5536;49.602;10.980;2022-12-07T03:46:31;2.60;99.90
10968;DHT22;5536;49.602;10.980;2022-12-07T03:49:06;2.70;99.90
10968;DHT22;5536;49.602;10.980;2022-12-07T03:51:40;2.60;99.90
10968;DHT22;5536;49.602;10.980;2022-12-07T03:54:13;2.70;99.90
10968;DHT22;5536;49.602;10.980;2022-12-07T03:56:43;2.60;99.90
10968;DHT22;5536;49.602;10.980;2022-12-07T03:59:11;2.60;99.90
10968;DHT22;5536;49.602;10.980;2022-12-07T04:01:43;2.50;99.90
10968;DHT22;5536;49.602;10.980;2022-12-07T04:04:10;2.40;99.90
10968;DHT22;5536;49.602;10.980;2022-12-07T04:06:37;2.50;99.90
10968;DHT22;5536;49.602;10.980;2022-12-07T04:09:04;2.60;99.90
10968;DHT22;5536;49.602;10.980;2022-12-07T04:11:31;2.70;99.90
10968;DHT22;5536;49.602;10.980;2022-12-07T04:13:58;2.70;99.90
10968;DHT22;5536;49.602;10.980;2022-12-07T04:16:44;2.60;99.90
10968;DHT22;5536;49.602;10.980;2022-12-07T04:19:11;2.40;99.90
10968;DHT22;5536;49.602;10.980;2022-12-07T04:21:38;2.40;99.90
10968;DHT22;5536;49.602;10.980;2022-12-07T04:24:05;2.40;99.90
10968;DHT22;5536;49.602;10.980;2022-12-07T04:26:32;2.40;99.90
10968;DHT22;5536;49.602;10.980;2022-12-07T04:28:59;2.40;99.90
10968;DHT22;5536;49.602;10.980;2022-12-07T04:31:26;2.50;99.90
10968;DHT22;5536;49.602;10.980;2022-12-07T04:33:54;2.50;99.90
10968;DHT22;5536;49.602;10.980;2022-12-07T04:36:21;2.50;99.90
10968;DHT22;5536;49.602;10.980;2022-12-07T04:38:48;2.50;99.90
10968;DHT22;5536;49.602;10.980;2022-12-07T04:41:15;2.60;99.90
10968;DHT22;5536;49.602;10.980;2022-12-07T04:43:42;2.60;99.90
10968;DHT22;5536;49.602;10.980;2022-12-07T04:46:09;2.60;99.90
10968;DHT22;5536;49.602;10.980;2022-12-07T04:48:36;2.70;99.90
10968;DHT22;5536;49.602;10.980;2022-12-07T04:51:05;2.70;99.90
10968;DHT22;5536;49.602;10.980;2022-12-07T04:53:32;2.70;99.90
10968;DHT22;5536;49.602;10.980;2022-12-07T04:55:58;2.60;99.90
10968;DHT22;5536;49.602;10.980;2022-12-07T04:58:26;2.70;99.90
10968;DHT22;5536;49.602;10.980;2022-12-07T05:00:54;2.60;99.90
10968;DHT22;5536;49.602;10.980;2022-12-07T05:03:21;2.60;99.90
10968;DHT22;5536;49.602;10.980;2022-12-07T05:05:48;2.70;99.90
10968;DHT22;5536;49.602;10.980;2022-12-07T05:08:16;2.70;99.90
10968;DHT22;5536;49.602;10.980;2022-12-07T05:10:43;2.70;99.90
10968;DHT22;5536;49.602;10.980;2022-12-07T05:13:10;2.70;99.90
10968;DHT22;5536;49.602;10.980;2022-12-07T05:15:55;2.70;99.90
10968;DHT22;5536;49.602;10.980;2022-12-07T05:18:48;2.70;99.90
10968;DHT22;5536;49.602;10.980;2022-12-07T05:21:23;2.80;99.90
10968;DHT22;5536;49.602;10.980;2022-12-07T05:24:21;2.80;99.90
10968;DHT22;5536;49.602;10.980;2022-12-07T05:26:51;2.80;99.90
10968;DHT22;5536;49.602;10.980;2022-12-07T05:29:18;2.80;99.90
10968;DHT22;5536;49.602;10.980;2022-12-07T05:31:45;2.80;99.90
10968;DHT22;5536;49.602;10.980;2022-12-07T05:34:13;2.90;99.90
10968;DHT22;5536;49.602;10.980;2022-12-07T05:36:40;2.90;99.90
10968;DHT22;5536;49.602;10.980;2022-12-07T05:39:09;2.80;99.90
10968;DHT22;5536;49.602;10.980;2022-12-07T05:41:36;2.80;99.90
10968;DHT22;5536;49.602;10.980;2022-12-07T05:44:21;2.90;99.90
10968;DHT22;5536;49.602;10.980;2022-12-07T05:46:47;2.90;99.90
10968;DHT22;5536;49.602;10.980;2022-12-07T05:49:15;2.90;99.90
10968;DHT22;5536;49.602;10.980;2022-12-07T05:51:42;2.90;99.90
10968;DHT22;5536;49.602;10.980;2022-12-07T05:54:12;2.90;99.90
10968;DHT22;5536;49.602;10.980;2022-12-07T05:56:39;2.90;99.90
10968;DHT22;5536;49.602;10.980;2022-12-07T05:59:06;2.90;99.90
10968;DHT22;5536;49.602;10.980;2022-12-07T06:01:54;2.90;99.90
10968;DHT22;5536;49.602;10.980;2022-12-07T06:04:22;3.00;99.90
10968;DHT22;5536;49.602;10.980;2022-12-07T06:06:49;2.90;99.90
10968;DHT22;5536;49.602;10.980;2022-12-07T06:09:18;2.90;99.90
10968;DHT22;5536;49.602;10.980;2022-12-07T06:11:45;2.90;99.90
10968;DHT22;5536;49.602;10.980;2022-12-07T06:14:30;2.90;99.90
10968;DHT22;5536;49.602;10.980;2022-12-07T06:16:57;2.90;99.90
10968;DHT22;5536;49.602;10.980;2022-12-07T06:19:24;2.90;99.90
10968;DHT22;5536;49.602;10.980;2022-12-07T06:21:51;2.90;99.90
10968;DHT22;5536;49.602;10.980;2022-12-07T06:24:20;3.00;99.90
10968;DHT22;5536;49.602;10.980;2022-12-07T06:26:47;2.90;99.90
10968;DHT22;5536;49.602;10.980;2022-12-07T06:29:16;2.90;99.90
10968;DHT22;5536;49.602;10.980;2022-12-07T06:31:43;2.90;99.90
10968;DHT22;5536;49.602;10.980;2022-12-07T06:34:12;2.80;99.90
10968;DHT22;5536;49.602;10.980;2022-12-07T06:36:40;2.80;99.90
10968;DHT22;5536;49.602;10.980;2022-12-07T06:39:08;2.80;99.90
10968;DHT22;5536;49.602;10.980;2022-12-07T06:41:36;2.80;99.90
10968;DHT22;5536;49.602;10.980;2022-12-07T06:44:04;2.80;99.90
10968;DHT22;5536;49.602;10.980;2022-12-07T06:46:31;2.80;99.90
10968;DHT22;5536;49.602;10.980;2022-12-07T06:49:01;2.90;99.90
10968;DHT22;5536;49.602;10.980;2022-12-07T06:51:28;2.90;99.90
10968;DHT22;5536;49.602;10.980;2022-12-07T06:53:55;3.00;99.90
10968;DHT22;5536;49.602;10.980;2022-12-07T06:56:23;3.00;99.90
10968;DHT22;5536;49.602;10.980;2022-12-07T06:58:51;2.90;99.90
10968;DHT22;5536;49.602;10.980;2022-12-07T07:01:18;2.90;99.90
10968;DHT22;5536;49.602;10.980;2022-12-07T07:03:47;2.90;99.90
10968;DHT22;5536;49.602;10.980;2022-12-07T07:06:15;3.00;99.90
10968;DHT22;5536;49.602;10.980;2022-12-07T07:08:42;3.10;99.90
10968;DHT22;5536;49.602;10.980;2022-12-07T07:11:11;3.10;99.90
10968;DHT22;5536;49.602;10.980;2022-12-07T07:13:38;3.10;99.90
10968;DHT22;5536;49.602;10.980;2022-12-07T07:16:07;3.10;99.90
10968;DHT22;5536;49.602;10.980;2022-12-07T07:18:34;3.20;99.90
10968;DHT22;5536;49.602;10.980;2022-12-07T07:21:02;3.20;99.90
10968;DHT22;5536;49.602;10.980;2022-12-07T07:23:29;3.20;99.90
10968;DHT22;5536;49.602;10.980;2022-12-07T07:25:56;3.20;99.90
10968;DHT22;5536;49.602;10.980;2022-12-07T07:28:23;3.20;99.90
10968;DHT22;5536;49.602;10.980;2022-12-07T07:30:50;3.30;99.90
10968;DHT22;5536;49.602;10.980;2022-12-07T07:33:18;3.30;99.90
10968;DHT22;5536;49.602;10.980;2022-12-07T07:35:45;3.30;99.90
10968;DHT22;5536;49.602;10.980;2022-12-07T07:38:12;3.30;99.90
10968;DHT22;5536;49.602;10.980;2022-12-07T07:40:39;3.30;99.90
10968;DHT22;5536;49.602;10.980;2022-12-07T07:43:06;3.30;99.90
10968;DHT22;5536;49.602;10.980;2022-12-07T07:45:33;3.30;99.90
10968;DHT22;5536;49.602;10.980;2022-12-07T07:48:00;3.30;99.90
10968;DHT22;5536;49.602;10.980;2022-12-07T07:50:29;3.30;99.90
10968;DHT22;5536;49.602;10.980;2022-12-07T07:52:56;3.30;99.90
10968;DHT22;5536;49.602;10.980;2022-12-07T07:55:24;3.30;99.90
10968;DHT22;5536;49.602;10.980;2022-12-07T07:57:50;3.30;99.90
10968;DHT22;5536;49.602;10.980;2022-12-07T08:00:18;3.30;99.90
10968;DHT22;5536;49.602;10.980;2022-12-07T08:02:45;3.30;99.90
10968;DHT22;5536;49.602;10.980;2022-12-07T08:05:13;3.40;99.90
10968;DHT22;5536;49.602;10.980;2022-12-07T08:07:44;3.40;99.90
10968;DHT22;5536;49.602;10.980;2022-12-07T08:10:12;3.40;99.90
10968;DHT22;5536;49.602;10.980;2022-12-07T08:12:41;3.40;99.90
10968;DHT22;5536;49.602;10.980;2022-12-07T08:15:22;3.40;99.90
10968;DHT22;5536;49.602;10.980;2022-12-07T08:17:49;3.40;99.90
10968;DHT22;5536;49.602;10.980;2022-12-07T08:20:16;3.40;99.90
10968;DHT22;5536;49.602;10.980;2022-12-07T08:22:44;3.50;99.90
10968;DHT22;5536;49.602;10.980;2022-12-07T08:25:11;3.50;99.90
10968;DHT22;5536;49.602;10.980;2022-12-07T08:27:38;3.50;99.90
10968;DHT22;5536;49.602;10.980;2022-12-07T08:30:06;3.50;99.90
10968;DHT22;5536;49.602;10.980;2022-12-07T08:32:33;3.60;99.90
10968;DHT22;5536;49.602;10.980;2022-12-07T08:35:00;3.60;99.90
10968;DHT22;5536;49.602;10.980;2022-12-07T08:37:28;3.60;99.90
10968;DHT22;5536;49.602;10.980;2022-12-07T08:39:56;3.60;99.90
10968;DHT22;5536;49.602;10.980;2022-12-07T08:42:23;3.60;99.90
10968;DHT22;5536;49.602;10.980;2022-12-07T08:44:55;3.60;99.90
10968;DHT22;5536;49.602;10.980;2022-12-07T08:47:22;3.50;99.90
10968;DHT22;5536;49.602;10.980;2022-12-07T08:49:50;3.60;99.90
10968;DHT22;5536;49.602;10.980;2022-12-07T08:52:18;3.60;99.90
10968;DHT22;5536;49.602;10.980;2022-12-07T08:54:45;3.50;99.90
10968;DHT22;5536;49.602;10.980;2022-12-07T08:57:14;3.60;99.90
10968;DHT22;5536;49.602;10.980;2022-12-07T08:59:41;3.60;99.90
10968;DHT22;5536;49.602;10.980;2022-12-07T09:02:08;3.60;99.90
10968;DHT22;5536;49.602;10.980;2022-12-07T09:04:35;3.60;99.90
10968;DHT22;5536;49.602;10.980;2022-12-07T09:07:02;3.60;99.90
10968;DHT22;5536;49.602;10.980;2022-12-07T09:09:29;3.60;99.90
10968;DHT22;5536;49.602;10.980;2022-12-07T09:11:56;3.60;99.90
10968;DHT22;5536;49.602;10.980;2022-12-07T09:14:25;3.60;99.90
10968;DHT22;5536;49.602;10.980;2022-12-07T09:16:52;3.70;99.90
10968;DHT22;5536;49.602;10.980;2022-12-07T09:19:20;3.60;99.90
10968;DHT22;5536;49.602;10.980;2022-12-07T09:21:47;3.70;99.90
10968;DHT22;5536;49.602;10.980;2022-12-07T09:24:15;3.70;99.90
10968;DHT22;5536;49.602;10.980;2022-12-07T09:26:43;3.70;99.90
10968;DHT22;5536;49.602;10.980;2022-12-07T09:29:11;3.70;99.90
10968;DHT22;5536;49.602;10.980;2022-12-07T09:31:40;3.70;99.90
10968;DHT22;5536;49.602;10.980;2022-12-07T09:34:07;3.70;99.90
10968;DHT22;5536;49.602;10.980;2022-12-07T09:36:34;3.70;99.90
10968;DHT22;5536;49.602;10.980;2022-12-07T09:39:02;3.70;99.90
10968;DHT22;5536;49.602;10.980;2022-12-07T09:41:31;3.80;99.90
10968;DHT22;5536;49.602;10.980;2022-12-07T09:44:03;3.80;99.90
10968;DHT22;5536;49.602;10.980;2022-12-07T09:46:34;3.80;99.90
10968;DHT22;5536;49.602;10.980;2022-12-07T09:49:04;3.80;99.90
10968;DHT22;5536;49.602;10.980;2022-12-07T09:51:31;3.80;99.90
10968;DHT22;5536;49.602;10.980;2022-12-07T09:53:59;3.80;99.90
10968;DHT22;5536;49.602;10.980;2022-12-07T09:56:29;3.80;99.90
10968;DHT22;5536;49.602;10.980;2022-12-07T09:58:59;3.90;99.90
10968;DHT22;5536;49.602;10.980;2022-12-07T10:01:30;3.80;99.90
10968;DHT22;5536;49.602;10.980;2022-12-07T10:04:06;3.90;99.90
10968;DHT22;5536;49.602;10.980;2022-12-07T10:06:36;3.90;99.90
10968;DHT22;5536;49.602;10.980;2022-12-07T10:09:09;3.90;99.90
10968;DHT22;5536;49.602;10.980;2022-12-07T10:11:57;3.90;99.90
10968;DHT22;5536;49.602;10.980;2022-12-07T10:14:27;3.90;99.90
10968;DHT22;5536;49.602;10.980;2022-12-07T10:16:55;3.90;99.90
10968;DHT22;5536;49.602;10.980;2022-12-07T10:19:26;4.00;99.90
10968;DHT22;5536;49.602;10.980;2022-12-07T10:22:02;4.00;99.90
10968;DHT22;5536;49.602;10.980;2022-12-07T10:24:30;4.00;99.90
10968;DHT22;5536;49.602;10.980;2022-12-07T10:26:57;4.10;99.90
10968;DHT22;5536;49.602;10.980;2022-12-07T10:29:29;4.10;99.90
10968;DHT22;5536;49.602;10.980;2022-12-07T10:31:59;4.10;99.90
10968;DHT22;5536;49.602;10.980;2022-12-07T10:34:30;4.00;99.90
10968;DHT22;5536;49.602;10.980;2022-12-07T10:37:15;4.00;99.90
10968;DHT22;5536;49.602;10.980;2022-12-07T10:39:44;4.00;99.90
10968;DHT22;5536;49.602;10.980;2022-12-07T10:42:19;4.00;99.90
10968;DHT22;5536;49.602;10.980;2022-12-07T10:44:47;4.10;99.90
10968;DHT22;5536;49.602;10.980;2022-12-07T10:47:33;4.10;99.90
10968;DHT22;5536;49.602;10.980;2022-12-07T10:50:29;4.10;99.90
10968;DHT22;5536;49.602;10.980;2022-12-07T10:53:21;4.10;99.90
10968;DHT22;5536;49.602;10.980;2022-12-07T10:56:17;4.10;99.90
10968;DHT22;5536;49.602;10.980;2022-12-07T10:59:04;4.10;99.90
10968;DHT22;5536;49.602;10.980;2022-12-07T11:01:44;4.20;99.90
10968;DHT22;5536;49.602;10.980;2022-12-07T11:04:22;4.20;99.90
10968;DHT22;5536;49.602;10.980;2022-12-07T11:06:57;4.20;99.90
10968;DHT22;5536;49.602;10.980;2022-12-07T11:12:29;4.40;99.90
10968;DHT22;5536;49.602;10.980;2022-12-07T11:15:04;4.40;99.90
10968;DHT22;5536;49.602;10.980;2022-12-07T11:17:45;4.30;99.90
10968;DHT22;5536;49.602;10.980;2022-12-07T11:23:06;4.30;99.90
10968;DHT22;5536;49.602;10.980;2022-12-07T11:25:43;4.30;99.90
10968;DHT22;5536;49.602;10.980;2022-12-07T11:28:21;4.30;99.90
10968;DHT22;5536;49.602;10.980;2022-12-07T11:30:59;4.30;99.90
10968;DHT22;5536;49.602;10.980;2022-12-07T11:33:34;4.30;99.90
10968;DHT22;5536;49.602;10.980;2022-12-07T11:36:13;4.30;99.90
10968;DHT22;5536;49.602;10.980;2022-12-07T11:38:49;4.30;99.90
10968;DHT22;5536;49.602;10.980;2022-12-07T11:41:20;4.30;99.90
10968;DHT22;5536;49.602;10.980;2022-12-07T11:43:54;4.30;99.90
10968;DHT22;5536;49.602;10.980;2022-12-07T11:46:25;4.30;99.90
10968;DHT22;5536;49.602;10.980;2022-12-07T11:48:58;4.30;99.90
10968;DHT22;5536;49.602;10.980;2022-12-07T11:51:28;4.30;99.90
10968;DHT22;5536;49.602;10.980;2022-12-07T11:54:02;4.30;99.90
10968;DHT22;5536;49.602;10.980;2022-12-07T11:56:30;4.30;99.90
10968;DHT22;5536;49.602;10.980;2022-12-07T11:59:07;4.30;99.90
10968;DHT22;5536;49.602;10.980;2022-12-07T12:01:45;4.30;99.90
10968;DHT22;5536;49.602;10.980;2022-12-07T12:07:06;4.30;99.90
10968;DHT22;5536;49.602;10.980;2022-12-07T12:09:41;4.30;99.90
10968;DHT22;5536;49.602;10.980;2022-12-07T12:12:36;4.30;99.90
10968;DHT22;5536;49.602;10.980;2022-12-07T12:15:18;4.30;99.90
10968;DHT22;5536;49.602;10.980;2022-12-07T12:18:17;4.40;99.90
10968;DHT22;5536;49.602;10.980;2022-12-07T12:20:50;4.40;99.90
10968;DHT22;5536;49.602;10.980;2022-12-07T12:23:21;4.40;99.90
10968;DHT22;5536;49.602;10.980;2022-12-07T12:25:52;4.40;99.90
10968;DHT22;5536;49.602;10.980;2022-12-07T12:28:24;4.40;99.90
10968;DHT22;5536;49.602;10.980;2022-12-07T12:31:07;4.40;99.90
10968;DHT22;5536;49.602;10.980;2022-12-07T12:33:36;4.40;99.90
10968;DHT22;5536;49.602;10.980;2022-12-07T12:36:23;4.30;99.90
10968;DHT22;5536;49.602;10.980;2022-12-07T12:39:08;4.30;99.90
10968;DHT22;5536;49.602;10.980;2022-12-07T12:41:59;4.30;99.90
10968;DHT22;5536;49.602;10.980;2022-12-07T12:44:40;4.40;99.90
10968;DHT22;5536;49.602;10.980;2022-12-07T12:50:21;4.40;99.90
10968;DHT22;5536;49.602;10.980;2022-12-07T12:53:02;4.40;99.90
10968;DHT22;5536;49.602;10.980;2022-12-07T12:55:49;4.40;99.90
10968;DHT22;5536;49.602;10.980;2022-12-07T12:58:33;4.40;99.90
10968;DHT22;5536;49.602;10.980;2022-12-07T13:04:30;4.50;99.90
10968;DHT22;5536;49.602;10.980;2022-12-07T13:07:02;4.50;99.90
10968;DHT22;5536;49.602;10.980;2022-12-07T13:09:30;4.50;99.90
10968;DHT22;5536;49.602;10.980;2022-12-07T13:12:04;4.50;99.90
10968;DHT22;5536;49.602;10.980;2022-12-07T13:15:00;4.50;99.90
10968;DHT22;5536;49.602;10.980;2022-12-07T13:17:59;4.50;99.90
10968;DHT22;5536;49.602;10.980;2022-12-07T13:20:49;4.50;99.90
10968;DHT22;5536;49.602;10.980;2022-12-07T13:23:30;4.50;99.90
10968;DHT22;5536;49.602;10.980;2022-12-07T13:26:06;4.40;99.90
10968;DHT22;5536;49.602;10.980;2022-12-07T13:28:38;4.40;99.90
10968;DHT22;5536;49.602;10.980;2022-12-07T13:31:19;4.50;99.90
10968;DHT22;5536;49.602;10.980;2022-12-07T13:33:47;4.50;99.90
10968;DHT22;5536;49.602;10.980;2022-12-07T13:36:21;4.50;99.90
10968;DHT22;5536;49.602;10.980;2022-12-07T13:38:51;4.50;99.90
10968;DHT22;5536;49.602;10.980;2022-12-07T13:41:19;4.50;99.90
10968;DHT22;5536;49.602;10.980;2022-12-07T13:43:51;4.50;99.90
10968;DHT22;5536;49.602;10.980;2022-12-07T13:46:25;4.50;99.90
10968;DHT22;5536;49.602;10.980;2022-12-07T13:48:53;4.50;99.90
10968;DHT22;5536;49.602;10.980;2022-12-07T13:51:23;4.50;99.90
10968;DHT22;5536;49.602;10.980;2022-12-07T13:53:52;4.50;99.90
10968;DHT22;5536;49.602;10.980;2022-12-07T13:56:22;4.50;99.90
10968;DHT22;5536;49.602;10.980;2022-12-07T13:58:51;4.50;99.90
10968;DHT22;5536;49.602;10.980;2022-12-07T14:01:32;4.50;99.90
10968;DHT22;5536;49.602;10.980;2022-12-07T14:04:19;4.50;99.90
10968;DHT22;5536;49.602;10.980;2022-12-07T14:06:54;4.50;99.90
10968;DHT22;5536;49.602;10.980;2022-12-07T14:09:23;4.40;99.90
10968;DHT22;5536;49.602;10.980;2022-12-07T14:11:52;4.40;99.90
10968;DHT22;5536;49.602;10.980;2022-12-07T14:14:22;4.40;99.90
10968;DHT22;5536;49.602;10.980;2022-12-07T14:16:59;4.40;99.90
10968;DHT22;5536;49.602;10.980;2022-12-07T14:19:48;4.40;99.90
10968;DHT22;5536;49.602;10.980;2022-12-07T14:22:29;4.40;99.90
10968;DHT22;5536;49.602;10.980;2022-12-07T14:25:17;4.40;99.90
10968;DHT22;5536;49.602;10.980;2022-12-07T14:27:54;4.40;99.90
10968;DHT22;5536;49.602;10.980;2022-12-07T14:30:24;4.40;99.90
10968;DHT22;5536;49.602;10.980;2022-12-07T14:32:56;4.40;99.90
10968;DHT22;5536;49.602;10.980;2022-12-07T14:35:23;4.40;99.90
10968;DHT22;5536;49.602;10.980;2022-12-07T14:37:50;4.40;99.90
10968;DHT22;5536;49.602;10.980;2022-12-07T14:40:19;4.40;99.90
10968;DHT22;5536;49.602;10.980;2022-12-07T14:42:52;4.40;99.90
10968;DHT22;5536;49.602;10.980;2022-12-07T14:45:22;4.30;99.90
10968;DHT22;5536;49.602;10.980;2022-12-07T14:47:49;4.20;99.90
10968;DHT22;5536;49.602;10.980;2022-12-07T14:50:21;4.20;99.90
10968;DHT22;5536;49.602;10.980;2022-12-07T14:52:50;4.20;99.90
10968;DHT22;5536;49.602;10.980;2022-12-07T14:55:23;4.20;99.90
10968;DHT22;5536;49.602;10.980;2022-12-07T14:57:51;4.10;99.90
10968;DHT22;5536;49.602;10.980;2022-12-07T15:00:21;4.00;99.90
10968;DHT22;5536;49.602;10.980;2022-12-07T15:02:49;4.00;99.90
10968;DHT22;5536;49.602;10.980;2022-12-07T15:05:18;3.90;99.90
10968;DHT22;5536;49.602;10.980;2022-12-07T15:07:47;3.90;99.90
10968;DHT22;5536;49.602;10.980;2022-12-07T15:10:16;3.90;99.90
10968;DHT22;5536;49.602;10.980;2022-12-07T15:12:44;3.90;99.90
10968;DHT22;5536;49.602;10.980;2022-12-07T15:15:14;3.90;99.90
10968;DHT22;5536;49.602;10.980;2022-12-07T15:17:45;3.90;99.90
10968;DHT22;5536;49.602;10.980;2022-12-07T15:20:14;3.90;99.90
10968;DHT22;5536;49.602;10.980;2022-12-07T15:22:42;3.80;99.90
10968;DHT22;5536;49.602;10.980;2022-12-07T15:25:12;3.80;99.90
10968;DHT22;5536;49.602;10.980;2022-12-07T15:27:39;3.80;99.90
10968;DHT22;5536;49.602;10.980;2022-12-07T15:30:07;3.80;99.90
10968;DHT22;5536;49.602;10.980;2022-12-07T15:32:34;3.70;99.90
10968;DHT22;5536;49.602;10.980;2022-12-07T15:35:02;3.70;99.90
10968;DHT22;5536;49.602;10.980;2022-12-07T15:37:28;3.60;99.90
10968;DHT22;5536;49.602;10.980;2022-12-07T15:39:55;3.60;99.90
10968;DHT22;5536;49.602;10.980;2022-12-07T15:42:24;3.50;99.90
10968;DHT22;5536;49.602;10.980;2022-12-07T15:44:50;3.40;99.90
10968;DHT22;5536;49.602;10.980;2022-12-07T15:47:31;3.40;99.90
10968;DHT22;5536;49.602;10.980;2022-12-07T15:50:00;3.50;99.90
10968;DHT22;5536;49.602;10.980;2022-12-07T15:52:27;3.50;99.90
10968;DHT22;5536;49.602;10.980;2022-12-07T15:54:54;3.50;99.90
10968;DHT22;5536;49.602;10.980;2022-12-07T15:57:21;3.50;99.90
10968;DHT22;5536;49.602;10.980;2022-12-07T15:59:49;3.50;99.90
10968;DHT22;5536;49.602;10.980;2022-12-07T16:02:16;3.50;99.90
10968;DHT22;5536;49.602;10.980;2022-12-07T16:04:43;3.50;99.90
10968;DHT22;5536;49.602;10.980;2022-12-07T16:07:10;3.50;99.90
10968;DHT22;5536;49.602;10.980;2022-12-07T16:09:40;3.50;99.90
10968;DHT22;5536;49.602;10.980;2022-12-07T16:12:07;3.50;99.90
10968;DHT22;5536;49.602;10.980;2022-12-07T16:14:34;3.50;99.90
10968;DHT22;5536;49.602;10.980;2022-12-07T16:17:04;3.40;99.90
10968;DHT22;5536;49.602;10.980;2022-12-07T16:19:31;3.50;99.90
10968;DHT22;5536;49.602;10.980;2022-12-07T16:22:11;3.40;99.90
10968;DHT22;5536;49.602;10.980;2022-12-07T16:24:38;3.50;99.90